Time;durP1;ratioP1;P1;durP2;ratioP2;P2;SDS_P1;SDS_P2;PMS_P1;PMS_P2;Temp;Humidity;BMP_temperature;BMP_pressure;BME280_temperature;BME280_humidity;BME280_pressure;Samples;Min_cycle;Max_cycle;Signal;HPM_P1;HPM_P2
2021/10/19 00:03:24;;;;;;;19.52;10.73;;;;;;;;;;10501257;28;20028;-74
2021/10/19 00:08:24;;;;;;;9.73;8.60;;;;;;;;;;10502911;28;20056;-74
2021/10/19 00:13:24;;;;;;;10.45;9.07;;;;;;;;;;10502298;28;20103;-74
2021/10/19 00:18:24;;;;;;;8.50;7.55;;;;;;;;;;10501885;28;20029;-74
2021/10/19 00:23:25;;;;;;;9.77;7.50;;;;;;;;;;10502041;28;20059;-74
2021/10/19 00:28:25;;;;;;;9.23;7.97;;;;;;;;;;10500610;28;20115;-75
2021/10/19 00:33:25;;;;;;;8.70;7.40;;;;;;;;;;10500452;28;20090;-75
2021/10/19 00:38:25;;;;;;;13.75;9.20;;;;;;;;;;10501130;28;20029;-73
2021/10/19 00:43:26;;;;;;;13.93;9.43;;;;;;;;;;10483550;28;20020;-74
2021/10/19 00:48:28;;;;;;;13.82;9.32;;;;;;;;;;10499369;28;20071;-73
2021/10/19 00:53:29;;;;;;;15.10;10.30;;;;;;;;;;10500726;28;20032;-75
2021/10/19 00:58:29;;;;;;;11.73;10.02;;;;;;;;;;10500768;28;20111;-73
2021/10/19 01:03:29;;;;;;;22.08;12.93;;;;;;;;;;10503572;28;20032;-74
2021/10/19 01:08:29;;;;;;;21.45;13.95;;;;;;;;;;10511977;28;20484;-73
2021/10/19 01:13:30;;;;;;;16.75;13.75;;;;;;;;;;10503460;28;20116;-74
2021/10/19 01:18:30;;;;;;;16.27;13.52;;;;;;;;;;10500934;28;20086;-74
2021/10/19 01:23:32;;;;;;;18.65;14.32;;;;;;;;;;10500544;28;20427;-75
2021/10/19 01:28:33;;;;;;;16.05;13.65;;;;;;;;;;10499425;28;20041;-75
2021/10/19 01:33:33;;;;;;;19.77;14.25;;;;;;;;;;10498313;28;20020;-75
2021/10/19 01:38:34;;;;;;;17.75;13.60;;;;;;;;;;10498965;28;20472;-75
2021/10/19 01:43:34;;;;;;;16.98;14.05;;;;;;;;;;10497961;28;20107;-75
2021/10/19 01:48:35;;;;;;;16.07;12.87;;;;;;;;;;10498220;28;20036;-75
2021/10/19 01:53:35;;;;;;;18.55;14.10;;;;;;;;;;10498643;28;20281;-74
2021/10/19 01:58:35;;;;;;;16.15;13.90;;;;;;;;;;10498656;28;20024;-74
2021/10/19 02:03:36;;;;;;;16.05;14.32;;;;;;;;;;10498622;28;20115;-75
2021/10/19 02:08:36;;;;;;;16.90;14.85;;;;;;;;;;10498047;28;20052;-74
2021/10/19 02:13:36;;;;;;;18.63;16.53;;;;;;;;;;10498290;28;20024;-74
2021/10/19 02:18:36;;;;;;;23.95;16.38;;;;;;;;;;10495946;28;20289;-74
2021/10/19 02:23:37;;;;;;;19.02;15.32;;;;;;;;;;10496628;28;20033;-74
2021/10/19 02:28:37;;;;;;;21.13;17.40;;;;;;;;;;10497767;28;20025;-75
2021/10/19 02:33:37;;;;;;;19.27;16.92;;;;;;;;;;10497460;28;20028;-74
2021/10/19 02:38:37;;;;;;;16.55;14.75;;;;;;;;;;10497724;28;20020;-74
2021/10/19 02:43:38;;;;;;;16.50;14.48;;;;;;;;;;10496193;28;20032;-74
2021/10/19 02:48:38;;;;;;;19.35;16.80;;;;;;;;;;10496648;28;20036;-74
2021/10/19 02:53:38;;;;;;;18.92;16.48;;;;;;;;;;10495906;28;20066;-74
2021/10/19 02:58:38;;;;;;;18.60;16.73;;;;;;;;;;10504972;28;20471;-74
2021/10/19 03:03:38;;;;;;;17.15;14.48;;;;;;;;;;10505268;28;20039;-74
2021/10/19 03:08:39;;;;;;;16.38;14.60;;;;;;;;;;10504892;28;20142;-75
2021/10/19 03:13:39;;;;;;;17.67;15.32;;;;;;;;;;10503792;28;20028;-74
2021/10/19 03:18:39;;;;;;;22.48;17.70;;;;;;;;;;10503517;28;20032;-74
2021/10/19 03:23:39;;;;;;;23.98;16.40;;;;;;;;;;10504373;28;20032;-74
2021/10/19 03:28:40;;;;;;;24.13;15.57;;;;;;;;;;10504013;28;20107;-74
2021/10/19 03:33:40;;;;;;;16.70;13.93;;;;;;;;;;10503981;28;20143;-75
2021/10/19 03:38:40;;;;;;;15.30;13.10;;;;;;;;;;10502682;28;20028;-74
2021/10/19 03:43:40;;;;;;;22.98;14.55;;;;;;;;;;10502172;28;20798;-74
2021/10/19 03:48:40;;;;;;;12.93;11.48;;;;;;;;;;10501200;28;20492;-74
2021/10/19 03:53:41;;;;;;;13.00;11.70;;;;;;;;;;10503203;28;20116;-74
2021/10/19 03:58:41;;;;;;;14.47;12.87;;;;;;;;;;10502856;28;20031;-74
2021/10/19 04:03:42;;;;;;;14.32;12.88;;;;;;;;;;10502880;28;20269;-73
2021/10/19 04:08:42;;;;;;;14.38;12.88;;;;;;;;;;10501490;28;20147;-74
2021/10/19 04:13:43;;;;;;;15.15;13.63;;;;;;;;;;10502274;28;20158;-75
2021/10/19 04:18:43;;;;;;;14.70;13.10;;;;;;;;;;10501716;28;20032;-74
2021/10/19 04:23:43;;;;;;;16.15;14.48;;;;;;;;;;10502254;28;20028;-75
2021/10/19 04:28:44;;;;;;;14.93;13.32;;;;;;;;;;10501634;28;20457;-74
2021/10/19 04:33:44;;;;;;;15.98;13.98;;;;;;;;;;10500350;28;20036;-74
2021/10/19 04:38:44;;;;;;;16.65;14.48;;;;;;;;;;10501238;28;20039;-74
2021/10/19 04:43:44;;;;;;;19.55;17.52;;;;;;;;;;10501094;28;20055;-74
2021/10/19 04:48:45;;;;;;;20.73;17.05;;;;;;;;;;10500473;28;20038;-74
2021/10/19 04:53:45;;;;;;;28.70;15.68;;;;;;;;;;10430376;27;20095;-74
2021/10/19 04:58:45;;;;;;;24.98;16.63;;;;;;;;;;10500386;28;20028;-75
2021/10/19 05:03:46;;;;;;;21.65;16.10;;;;;;;;;;10500257;28;20029;-74
2021/10/19 05:08:47;;;;;;;24.08;19.63;;;;;;;;;;10499913;28;20064;-74
2021/10/19 05:13:47;;;;;;;20.52;18.33;;;;;;;;;;10499753;28;20025;-74
2021/10/19 05:18:47;;;;;;;27.70;20.75;;;;;;;;;;10499385;28;20439;-74
2021/10/19 05:23:47;;;;;;;21.45;17.83;;;;;;;;;;10498382;28;20025;-74
2021/10/19 05:28:47;;;;;;;20.55;18.40;;;;;;;;;;10499284;28;20379;-74
2021/10/19 05:33:48;;;;;;;26.10;18.90;;;;;;;;;;10499022;28;20039;-74
2021/10/19 05:38:50;;;;;;;27.63;18.48;;;;;;;;;;10497430;28;20025;-74
2021/10/19 05:43:50;;;;;;;34.22;20.88;;;;;;;;;;10498531;28;20082;-74
2021/10/19 05:48:51;;;;;;;23.30;17.85;;;;;;;;;;10497802;28;20166;-73
2021/10/19 05:53:51;;;;;;;21.27;18.38;;;;;;;;;;10498435;28;20031;-73
2021/10/19 05:58:51;;;;;;;21.35;19.17;;;;;;;;;;10498253;28;20392;-74
2021/10/19 06:03:51;;;;;;;24.58;20.40;;;;;;;;;;10498102;28;20028;-76
2021/10/19 06:08:52;;;;;;;30.48;24.23;;;;;;;;;;10498142;28;20059;-74
2021/10/19 06:13:52;;;;;;;26.77;20.77;;;;;;;;;;10497652;28;20468;-74
2021/10/19 06:18:52;;;;;;;23.73;20.10;;;;;;;;;;10497029;28;20262;-73
2021/10/19 06:23:52;;;;;;;21.98;19.30;;;;;;;;;;10497721;28;20281;-73
2021/10/19 06:28:52;;;;;;;22.02;18.73;;;;;;;;;;10497209;28;20024;-73
2021/10/19 06:33:53;;;;;;;19.00;17.08;;;;;;;;;;10497462;28;20040;-73
2021/10/19 06:38:53;;;;;;;21.23;17.42;;;;;;;;;;10497492;28;20396;-73
2021/10/19 06:43:53;;;;;;;20.92;15.38;;;;;;;;;;10497135;28;20024;-74
2021/10/19 06:48:53;;;;;;;18.75;15.20;;;;;;;;;;10496502;28;20028;-74
2021/10/19 06:53:54;;;;;;;18.50;16.60;;;;;;;;;;10496996;28;20029;-74
2021/10/19 06:58:54;;;;;;;20.35;17.00;;;;;;;;;;10496086;28;20061;-73
2021/10/19 07:03:54;;;;;;;17.08;13.93;;;;;;;;;;10496950;28;20031;-73
2021/10/19 07:08:54;;;;;;;20.30;17.02;;;;;;;;;;10496450;28;20411;-74
2021/10/19 07:13:55;;;;;;;17.27;15.45;;;;;;;;;;10496591;28;20029;-74
2021/10/19 07:18:55;;;;;;;18.00;14.48;;;;;;;;;;10495381;28;20036;-74
2021/10/19 07:23:55;;;;;;;15.07;13.65;;;;;;;;;;10497073;28;20028;-73
2021/10/19 07:28:55;;;;;;;20.17;13.95;;;;;;;;;;10500765;28;20054;-73
2021/10/19 07:33:55;;;;;;;13.38;12.07;;;;;;;;;;10508011;28;20043;-74
2021/10/19 07:38:56;;;;;;;12.20;11.00;;;;;;;;;;10495673;28;20107;-74
2021/10/19 07:43:56;;;;;;;11.05;10.07;;;;;;;;;;10500759;28;20037;-74
2021/10/19 07:48:56;;;;;;;10.90;9.75;;;;;;;;;;10502721;28;20036;-74
2021/10/19 07:53:56;;;;;;;13.70;11.88;;;;;;;;;;10503150;28;20129;-74
2021/10/19 07:58:58;;;;;;;16.10;12.40;;;;;;;;;;10485685;28;20104;-74
2021/10/19 08:03:58;;;;;;;15.82;12.23;;;;;;;;;;10502856;28;20078;-74
2021/10/19 08:09:00;;;;;;;14.02;11.80;;;;;;;;;;10501534;28;20060;-74
2021/10/19 08:14:01;;;;;;;19.35;14.00;;;;;;;;;;10502707;28;20025;-75
2021/10/19 08:19:02;;;;;;;21.52;16.25;;;;;;;;;;10502450;28;20052;-75
2021/10/19 08:24:02;;;;;;;15.93;13.13;;;;;;;;;;10502457;28;20515;-75
2021/10/19 08:29:02;;;;;;;16.55;14.80;;;;;;;;;;10484652;28;20316;-75
2021/10/19 08:34:03;;;;;;;22.55;16.00;;;;;;;;;;10502016;28;20058;-75
2021/10/19 08:39:03;;;;;;;16.08;14.32;;;;;;;;;;10502052;28;20067;-76
2021/10/19 08:44:04;;;;;;;15.00;11.63;;;;;;;;;;10500236;28;20480;-75
2021/10/19 08:49:04;;;;;;;13.30;11.93;;;;;;;;;;10500434;28;20024;-75
2021/10/19 08:54:08;;;;;;;17.02;11.07;;;;;;;;;;10500818;28;20040;-76
2021/10/19 08:59:09;;;;;;;14.48;9.68;;;;;;;;;;10500687;28;20033;-76
2021/10/19 09:04:10;;;;;;;9.20;8.35;;;;;;;;;;10500197;28;20448;-75
2021/10/19 09:09:12;;;;;;;12.50;11.20;;;;;;;;;;10500130;28;20144;-76
2021/10/19 09:14:12;;;;;;;17.45;11.38;;;;;;;;;;10498539;28;20444;-76
2021/10/19 09:19:16;;;;;;;14.43;12.15;;;;;;;;;;10480988;28;20029;-76
2021/10/19 09:24:17;;;;;;;13.00;11.48;;;;;;;;;;10498244;28;20020;-76
2021/10/19 09:29:17;;;;;;;24.13;12.57;;;;;;;;;;10499420;28;20035;-76
2021/10/19 09:34:17;;;;;;;13.50;11.07;;;;;;;;;;10499009;28;20041;-77
2021/10/19 09:39:27;;;;;;;16.65;13.15;;;;;;;;;;10498906;28;20430;-76
2021/10/19 09:44:28;;;;;;;15.68;11.63;;;;;;;;;;10498619;28;20036;-76
2021/10/19 09:49:28;;;;;;;14.38;11.15;;;;;;;;;;10497922;28;20028;-76
2021/10/19 09:54:29;;;;;;;14.30;11.98;;;;;;;;;;10497356;28;20113;-75
2021/10/19 09:59:30;;;;;;;10.35;9.43;;;;;;;;;;10496885;28;20020;-74
2021/10/19 10:04:30;;;;;;;12.80;9.80;;;;;;;;;;10496394;28;20024;-75
2021/10/19 10:09:30;;;;;;;12.32;9.70;;;;;;;;;;10496885;28;20110;-74
2021/10/19 10:14:39;;;;;;;12.10;10.87;;;;;;;;;;10496545;28;20033;-75
2021/10/19 10:19:39;;;;;;;14.35;9.52;;;;;;;;;;10497149;28;20609;-75
2021/10/19 10:24:41;;;;;;;13.48;9.88;;;;;;;;;;10497713;28;20037;-74
2021/10/19 10:29:43;;;;;;;12.10;10.90;;;;;;;;;;10497765;28;20025;-74
2021/10/19 10:34:43;;;;;;;13.55;10.95;;;;;;;;;;10498797;28;20032;-74
2021/10/19 10:39:45;;;;;;;10.95;9.50;;;;;;;;;;10497208;28;20028;-75
2021/10/19 10:44:45;;;;;;;10.05;9.02;;;;;;;;;;10497640;28;20021;-75
2021/10/19 10:49:45;;;;;;;16.35;10.10;;;;;;;;;;10496433;28;20036;-75
2021/10/19 10:54:50;;;;;;;10.80;9.70;;;;;;;;;;10495933;28;20028;-75
2021/10/19 10:59:51;;;;;;;11.40;9.38;;;;;;;;;;10495634;28;20103;-76
2021/10/19 11:04:51;;;;;;;7.95;7.15;;;;;;;;;;10498358;28;20450;-76
2021/10/19 11:09:51;;;;;;;9.23;8.45;;;;;;;;;;10498520;28;20070;-73
2021/10/19 11:14:52;;;;;;;10.75;9.60;;;;;;;;;;10497503;28;20033;-73
2021/10/19 11:19:54;;;;;;;10.00;9.30;;;;;;;;;;10503136;28;20025;-73
2021/10/19 11:24:54;;;;;;;12.70;10.68;;;;;;;;;;10504350;28;20040;-73
2021/10/19 11:29:55;;;;;;;11.23;10.02;;;;;;;;;;10503343;28;20032;-75
2021/10/19 11:34:55;;;;;;;24.98;14.10;;;;;;;;;;10504303;28;20373;-72
2021/10/19 11:40:08;;;;;;;15.98;11.48;;;;;;;;;;10503741;28;20032;-72
2021/10/19 11:45:09;;;;;;;25.50;13.27;;;;;;;;;;10503799;28;20034;-73
2021/10/19 11:50:09;;;;;;;17.40;11.93;;;;;;;;;;10503835;28;20544;-73
2021/10/19 11:55:10;;;;;;;21.55;13.45;;;;;;;;;;10503951;28;20542;-73
2021/10/19 12:00:10;;;;;;;16.02;13.23;;;;;;;;;;10503342;28;20021;-74
2021/10/19 12:05:10;;;;;;;32.05;13.68;;;;;;;;;;10503194;28;20052;-73
2021/10/19 12:10:11;;;;;;;24.33;14.13;;;;;;;;;;10503348;28;20136;-73
2021/10/19 12:15:11;;;;;;;20.63;16.10;;;;;;;;;;10503593;28;20385;-73
2021/10/19 12:20:12;;;;;;;31.52;15.90;;;;;;;;;;10500992;28;20020;-73
2021/10/19 12:25:12;;;;;;;17.20;14.50;;;;;;;;;;10501090;28;20158;-73
2021/10/19 12:30:13;;;;;;;21.08;15.23;;;;;;;;;;10502233;28;20028;-73
2021/10/19 12:35:13;;;;;;;27.02;14.65;;;;;;;;;;10502198;28;20042;-73
2021/10/19 12:40:15;;;;;;;23.57;13.30;;;;;;;;;;10502177;28;20039;-73
2021/10/19 12:45:15;;;;;;;19.90;14.63;;;;;;;;;;10501135;28;20336;-73
2021/10/19 12:50:15;;;;;;;18.67;13.60;;;;;;;;;;10501203;28;20380;-74
2021/10/19 12:55:15;;;;;;;27.05;13.93;;;;;;;;;;10500632;28;20107;-74
2021/10/19 13:00:16;;;;;;;19.00;14.70;;;;;;;;;;10501255;28;20123;-74
2021/10/19 13:05:19;;;;;;;16.13;13.30;;;;;;;;;;10501001;28;20093;-75
2021/10/19 13:10:19;;;;;;;15.82;13.82;;;;;;;;;;10500478;28;20059;-74
2021/10/19 13:15:21;;;;;;;26.08;15.05;;;;;;;;;;10500760;28;20032;-75
2021/10/19 13:20:21;;;;;;;16.70;14.52;;;;;;;;;;10500857;28;20028;-74
2021/10/19 13:25:22;;;;;;;14.23;11.90;;;;;;;;;;10501384;28;20376;-73
2021/10/19 13:30:22;;;;;;;18.40;13.68;;;;;;;;;;10499281;28;20028;-76
2021/10/19 13:35:22;;;;;;;15.20;13.60;;;;;;;;;;10500423;28;20028;-74
2021/10/19 13:40:22;;;;;;;15.55;13.52;;;;;;;;;;10497838;28;20028;-77
2021/10/19 13:45:23;;;;;;;14.75;13.25;;;;;;;;;;10497590;28;20032;-76
2021/10/19 13:50:23;;;;;;;15.98;13.13;;;;;;;;;;10498639;28;20036;-76
2021/10/19 13:55:23;;;;;;;18.75;14.20;;;;;;;;;;10498727;28;20024;-76
2021/10/19 14:00:23;;;;;;;22.65;14.38;;;;;;;;;;10498428;28;20029;-75
2021/10/19 14:05:23;;;;;;;23.20;15.93;;;;;;;;;;10498716;28;20024;-75
2021/10/19 14:10:24;;;;;;;18.20;14.35;;;;;;;;;;10497599;28;20084;-75
2021/10/19 14:15:28;;;;;;;17.15;13.85;;;;;;;;;;10497991;28;20040;-75
2021/10/19 14:20:29;;;;;;;18.02;14.07;;;;;;;;;;10497270;28;20139;-76
2021/10/19 14:25:29;;;;;;;18.45;14.48;;;;;;;;;;10497837;28;20444;-75
2021/10/19 14:30:32;;;;;;;27.88;14.63;;;;;;;;;;10495923;28;20435;-75
2021/10/19 14:35:32;;;;;;;19.63;15.95;;;;;;;;;;10497209;28;20036;-75
2021/10/19 14:40:32;;;;;;;18.45;14.13;;;;;;;;;;10497386;28;20028;-75
2021/10/19 14:45:33;;;;;;;15.20;13.52;;;;;;;;;;10496897;28;20051;-75
2021/10/19 14:50:33;;;;;;;17.73;15.05;;;;;;;;;;10498036;28;20037;-75
2021/10/19 14:55:33;;;;;;;18.40;15.27;;;;;;;;;;10505442;28;20039;-75
2021/10/19 15:00:33;;;;;;;20.50;14.30;;;;;;;;;;10505089;28;20033;-75
2021/10/19 15:05:34;;;;;;;23.05;16.45;;;;;;;;;;10504971;28;20476;-75
2021/10/19 15:10:34;;;;;;;14.35;13.00;;;;;;;;;;10504831;28;20092;-75
2021/10/19 15:15:34;;;;;;;16.50;14.68;;;;;;;;;;10504752;28;20044;-75
2021/10/19 15:20:35;;;;;;;18.02;16.00;;;;;;;;;;10503509;28;20412;-75
2021/10/19 15:25:35;;;;;;;20.15;15.85;;;;;;;;;;10503035;28;20120;-75
2021/10/19 15:30:36;;;;;;;19.42;16.08;;;;;;;;;;10503834;28;20041;-75
2021/10/19 15:35:36;;;;;;;30.25;16.25;;;;;;;;;;10501756;28;20120;-75
2021/10/19 15:40:36;;;;;;;21.90;16.00;;;;;;;;;;10503730;28;20103;-74
2021/10/19 15:45:37;;;;;;;16.92;14.07;;;;;;;;;;10503285;28;20093;-75
2021/10/19 15:50:37;;;;;;;24.13;16.52;;;;;;;;;;10502704;28;20055;-75
2021/10/19 15:55:37;;;;;;;15.48;13.95;;;;;;;;;;10503084;28;20051;-75
2021/10/19 16:00:37;;;;;;;15.98;14.10;;;;;;;;;;10502795;28;20108;-75
2021/10/19 16:05:38;;;;;;;23.08;14.68;;;;;;;;;;10501530;28;20039;-74
2021/10/19 16:10:38;;;;;;;19.55;13.73;;;;;;;;;;10501251;28;20056;-75
2021/10/19 16:15:39;;;;;;;13.82;12.32;;;;;;;;;;10502141;28;20035;-74
2021/10/19 16:20:39;;;;;;;17.33;12.98;;;;;;;;;;10500579;28;20058;-74
2021/10/19 16:25:39;;;;;;;17.58;13.50;;;;;;;;;;10501883;28;20059;-75
2021/10/19 16:30:39;;;;;;;18.25;15.10;;;;;;;;;;10502677;28;20448;-74
2021/10/19 16:35:40;;;;;;;17.27;13.45;;;;;;;;;;10500109;28;20035;-74
2021/10/19 16:40:40;;;;;;;17.08;13.25;;;;;;;;;;10501097;28;20137;-75
2021/10/19 16:45:40;;;;;;;18.48;14.32;;;;;;;;;;10499733;28;20029;-75
2021/10/19 16:50:40;;;;;;;13.82;12.10;;;;;;;;;;10500666;28;20419;-74
2021/10/19 16:55:41;;;;;;;14.95;11.82;;;;;;;;;;10502607;28;20036;-75
2021/10/19 17:00:41;;;;;;;21.40;13.77;;;;;;;;;;10500333;28;20465;-75
2021/10/19 17:05:41;;;;;;;14.52;11.52;;;;;;;;;;10498945;28;20036;-75
2021/10/19 17:10:42;;;;;;;20.75;12.35;;;;;;;;;;10500278;28;20127;-74
2021/10/19 17:15:42;;;;;;;23.45;12.38;;;;;;;;;;10499422;28;20052;-75
2021/10/19 17:20:42;;;;;;;22.77;12.15;;;;;;;;;;10499563;28;20028;-76
2021/10/19 17:25:43;;;;;;;14.35;12.93;;;;;;;;;;10498182;28;20032;-72
2021/10/19 17:30:43;;;;;;;16.33;9.90;;;;;;;;;;10497822;28;20469;-74
2021/10/19 17:35:43;;;;;;;14.77;11.18;;;;;;;;;;10499591;28;20033;-73
2021/10/19 17:40:43;;;;;;;14.13;10.65;;;;;;;;;;10498968;28;20636;-75
2021/10/19 17:45:44;;;;;;;18.10;11.63;;;;;;;;;;10498873;28;20043;-74
2021/10/19 17:50:44;;;;;;;15.52;11.40;;;;;;;;;;10498403;28;20032;-75
2021/10/19 17:55:45;;;;;;;11.80;10.38;;;;;;;;;;10499265;28;20048;-74
2021/10/19 18:00:45;;;;;;;16.85;11.80;;;;;;;;;;10499316;28;20086;-75
2021/10/19 18:05:45;;;;;;;16.10;11.53;;;;;;;;;;10497688;28;20047;-74
2021/10/19 18:10:46;;;;;;;12.43;11.13;;;;;;;;;;10498853;28;20286;-74
2021/10/19 18:15:46;;;;;;;13.83;12.27;;;;;;;;;;10498972;28;20483;-75
2021/10/19 18:20:46;;;;;;;14.20;11.88;;;;;;;;;;10497612;28;20618;-74
2021/10/19 18:25:46;;;;;;;15.88;11.32;;;;;;;;;;10497946;28;20388;-74
2021/10/19 18:30:49;;;;;;;13.18;11.63;;;;;;;;;;10498382;28;20103;-74
2021/10/19 18:35:50;;;;;;;17.17;12.13;;;;;;;;;;10497113;28;20031;-74
2021/10/19 18:40:50;;;;;;;13.23;11.35;;;;;;;;;;10498559;28;20112;-76
2021/10/19 18:45:50;;;;;;;14.55;11.35;;;;;;;;;;10498530;28;20056;-73
2021/10/19 18:50:51;;;;;;;18.00;12.80;;;;;;;;;;10495844;28;20478;-73
2021/10/19 18:55:51;;;;;;;15.00;12.15;;;;;;;;;;10496422;28;20473;-73
2021/10/19 19:00:51;;;;;;;11.85;10.63;;;;;;;;;;10498083;28;20052;-73
2021/10/19 19:05:51;;;;;;;22.23;12.25;;;;;;;;;;10497446;28;20074;-73
2021/10/19 19:10:52;;;;;;;15.20;10.40;;;;;;;;;;10497504;28;20063;-72
2021/10/19 19:15:53;;;;;;;17.05;10.68;;;;;;;;;;10497254;28;20036;-73
2021/10/19 19:20:53;;;;;;;17.88;11.50;;;;;;;;;;10496980;28;20036;-73
2021/10/19 19:25:53;;;;;;;17.77;12.70;;;;;;;;;;10496194;28;20036;-73
2021/10/19 19:30:53;;;;;;;18.65;12.05;;;;;;;;;;10496748;28;20040;-74
2021/10/19 19:35:54;;;;;;;20.58;11.95;;;;;;;;;;10496024;28;20041;-73
2021/10/19 19:40:54;;;;;;;12.98;10.88;;;;;;;;;;10504318;28;20103;-73
2021/10/19 19:45:54;;;;;;;14.77;10.13;;;;;;;;;;10504045;28;20418;-73
2021/10/19 19:50:56;;;;;;;13.13;9.80;;;;;;;;;;10503019;28;20040;-75
2021/10/19 19:55:58;;;;;;;19.10;11.27;;;;;;;;;;10504820;28;20045;-75
2021/10/19 20:00:59;;;;;;;11.82;10.38;;;;;;;;;;10457167;28;20044;-73
2021/10/19 20:05:59;;;;;;;19.10;13.40;;;;;;;;;;10503011;28;20031;-73
2021/10/19 20:11:00;;;;;;;17.52;11.60;;;;;;;;;;10501904;28;20052;-73
2021/10/19 20:16:00;;;;;;;16.30;12.68;;;;;;;;;;10503195;28;20038;-74
2021/10/19 20:21:00;;;;;;;17.52;11.40;;;;;;;;;;10503463;28;20101;-76
2021/10/19 20:26:00;;;;;;;13.60;10.30;;;;;;;;;;10503121;28;20468;-75
2021/10/19 20:31:01;;;;;;;13.75;9.85;;;;;;;;;;10502611;28;20090;-75
2021/10/19 20:36:01;;;;;;;17.70;10.80;;;;;;;;;;10501541;28;20028;-76
2021/10/19 20:41:02;;;;;;;13.73;11.65;;;;;;;;;;10502337;28;20032;-75
2021/10/19 20:46:02;;;;;;;29.00;11.27;;;;;;;;;;10502583;28;20029;-77
2021/10/19 20:51:02;;;;;;;15.77;11.52;;;;;;;;;;10500828;28;20024;-75
2021/10/19 20:56:02;;;;;;;17.70;11.80;;;;;;;;;;10502936;28;20358;-76
2021/10/19 21:01:03;;;;;;;10.40;9.50;;;;;;;;;;10502854;28;20066;-75
2021/10/19 21:06:04;;;;;;;14.20;12.15;;;;;;;;;;10500231;28;20029;-75
2021/10/19 21:11:04;;;;;;;15.27;11.15;;;;;;;;;;10500449;28;20489;-75
2021/10/19 21:16:04;;;;;;;12.80;10.95;;;;;;;;;;10499874;28;20425;-75
2021/10/19 21:21:05;;;;;;;13.57;10.85;;;;;;;;;;10500080;28;20071;-75
2021/10/19 21:26:06;;;;;;;13.13;9.82;;;;;;;;;;10499909;28;20024;-75
2021/10/19 21:31:06;;;;;;;13.35;11.73;;;;;;;;;;10498843;28;20033;-75
2021/10/19 21:36:06;;;;;;;14.68;11.10;;;;;;;;;;10500334;28;20467;-76
2021/10/19 21:41:07;;;;;;;14.35;11.32;;;;;;;;;;10500327;28;20047;-75
2021/10/19 21:46:07;;;;;;;16.98;10.52;;;;;;;;;;10499067;28;20032;-76
2021/10/19 21:51:07;;;;;;;16.27;11.43;;;;;;;;;;10498462;28;20444;-75
2021/10/19 21:56:07;;;;;;;17.90;11.45;;;;;;;;;;10499197;28;20127;-76
2021/10/19 22:01:08;;;;;;;13.70;10.85;;;;;;;;;;10497487;28;20116;-77
2021/10/19 22:06:08;;;;;;;12.75;10.80;;;;;;;;;;10498527;28;20025;-76
2021/10/19 22:11:08;;;;;;;12.07;9.93;;;;;;;;;;10497096;28;20084;-75
2021/10/19 22:16:09;;;;;;;14.63;12.18;;;;;;;;;;10498436;28;20098;-75
2021/10/19 22:21:09;;;;;;;18.33;11.05;;;;;;;;;;10497140;28;20025;-74
2021/10/19 22:26:16;;;;;;;11.02;9.93;;;;;;;;;;10497527;28;20025;-75
2021/10/19 22:31:20;;;;;;;19.45;11.93;;;;;;;;;;10479695;28;20028;-74
2021/10/19 22:36:20;;;;;;;18.90;12.40;;;;;;;;;;10497379;28;20479;-75
2021/10/19 22:41:21;;;;;;;15.23;11.75;;;;;;;;;;10496395;28;20035;-73
2021/10/19 22:46:21;;;;;;;16.63;10.15;;;;;;;;;;10497222;28;20032;-74
2021/10/19 22:51:21;;;;;;;9.77;8.27;;;;;;;;;;10496572;28;20032;-74
2021/10/19 22:56:21;;;;;;;11.20;9.52;;;;;;;;;;10498024;28;20037;-74
2021/10/19 23:01:21;;;;;;;9.05;8.05;;;;;;;;;;10497183;28;20032;-74
2021/10/19 23:06:22;;;;;;;11.35;9.98;;;;;;;;;;10496810;28;20063;-74
2021/10/19 23:11:22;;;;;;;13.63;10.23;;;;;;;;;;10497880;28;20587;-74
2021/10/19 23:16:23;;;;;;;9.75;8.75;;;;;;;;;;10503462;28;20170;-74
2021/10/19 23:21:23;;;;;;;11.32;10.10;;;;;;;;;;10486089;28;20489;-74
2021/10/19 23:26:23;;;;;;;11.23;9.43;;;;;;;;;;10487050;28;20039;-74
2021/10/19 23:31:23;;;;;;;11.55;8.68;;;;;;;;;;10502758;28;20126;-74
2021/10/19 23:36:23;;;;;;;9.82;8.13;;;;;;;;;;10504083;28;20120;-74
2021/10/19 23:41:26;;;;;;;13.52;9.70;;;;;;;;;;10503628;28;20036;-74
2021/10/19 23:46:26;;;;;;;8.25;7.20;;;;;;;;;;10503669;28;20123;-74
2021/10/19 23:51:26;;;;;;;20.48;7.38;;;;;;;;;;10502712;28;20474;-74
2021/10/19 23:56:26;;;;;;;15.52;7.50;;;;;;;;;;10503125;28;20033;-74
